Time;durP1;ratioP1;P1;durP2;ratioP2;P2;SDS_P1;SDS_P2;PMS_P1;PMS_P2;Temp;Humidity;BMP_temperature;BMP_pressure;BME280_temperature;BME280_humidity;BME280_pressure;Samples;Min_cycle;Max_cycle;Signal;HPM_P1;HPM_P2
2022/02/20 01:13:26;;;;;;;8.18;5.92;;;;;;;1.86;100.00;98876.15;1666393;85;21067;-65
2022/02/20 01:19:55;;;;;;;9.25;6.05;;;;;;;1.63;100.00;98887.26;1562640;90;21233;-66
2022/02/20 01:28:27;;;;;;;12.15;6.97;;;;;;;1.52;100.00;98887.11;1463653;97;21444;-66
2022/02/20 01:31:23;;;;;;;6.85;5.58;;;;;;;1.49;100.00;98894.95;1460999;96;21553;-66
2022/02/20 01:59:08;;;;;;;11.40;6.53;;;;;;;1.21;100.00;98911.95;1298814;108;21292;-67
2022/02/20 03:29:01;;;;;;;155.85;75.12;;;;;;;0.52;100.00;98980.66;1592052;88;20963;-65
2022/02/20 03:51:10;;;;;;;42.05;21.65;;;;;;;0.02;100.00;98973.56;1569533;90;21135;-65
2022/02/20 03:54:42;;;;;;;38.65;25.80;;;;;;;-0.05;100.00;98980.16;1512917;93;21031;-65
2022/02/20 04:29:39;;;;;;;8.35;6.25;;;;;;;-0.69;100.00;98985.77;1319822;107;21109;-67
2022/02/20 05:04:18;;;;;;;21.87;12.85;;;;;;;-0.66;100.00;99023.11;1277167;110;21081;-67
2022/02/20 05:07:23;;;;;;;31.00;18.65;;;;;;;-0.72;100.00;99020.42;1278172;110;21626;-67
2022/02/20 05:11:23;;;;;;;11.43;9.55;;;;;;;-0.73;100.00;99020.94;1260521;111;21241;-67
2022/02/20 05:19:57;;;;;;;;;;;;;;;;;;;;;
2022/02/20 05:38:17;;;;;;;106.47;47.38;;;;;;;-0.29;100.00;99034.77;1244287;111;21339;-67
2022/02/20 06:16:52;;;;;;;41.00;25.00;;;;;;;1.89;100.00;99057.52;1447924;97;21763;-67
2022/02/20 06:19:27;;;;;;;24.15;10.65;;;;;;;1.47;100.00;99067.58;1453021;96;21577;-66
2022/02/20 06:22:12;;;;;;;14.23;8.13;;;;;;;1.72;100.00;99062.46;1442009;97;21104;-66
2022/02/20 06:25:00;;;;;;;12.95;6.85;;;;;;;2.02;100.00;99065.40;1463525;96;21029;-67
2022/02/20 06:27:54;;;;;;;8.03;5.40;;;;;;;2.31;100.00;99069.86;1535832;89;21157;-66
2022/02/20 06:30:37;;;;;;;9.30;5.12;;;;;;;2.44;100.00;99064.99;1561249;90;20984;-64
2022/02/20 06:33:05;;;;;;;8.93;5.53;;;;;;;2.61;100.00;99069.28;1552835;90;21522;-67
2022/02/20 06:35:36;;;;;;;6.72;4.75;;;;;;;2.75;100.00;99073.47;1575550;89;21112;-68
2022/02/20 06:38:05;;;;;;;8.20;5.47;;;;;;;2.72;100.00;99072.06;1586134;89;20939;-68
2022/02/20 06:40:36;;;;;;;10.20;5.85;;;;;;;2.96;100.00;99071.80;1599279;89;21528;-69
2022/02/20 06:43:04;;;;;;;5.65;4.42;;;;;;;3.08;100.00;99065.77;1590206;89;21698;-66
2022/02/20 06:45:32;;;;;;;8.75;5.05;;;;;;;3.17;100.00;99069.26;1573959;89;21722;-65
2022/02/20 06:48:01;;;;;;;7.90;5.42;;;;;;;3.34;100.00;99073.50;1574928;89;21095;-67
2022/02/20 06:50:38;;;;;;;9.03;5.25;;;;;;;3.33;100.00;99076.36;1597869;88;21025;-67
2022/02/20 06:53:09;;;;;;;11.73;6.30;;;;;;;3.33;100.00;99079.02;1651338;86;20981;-69
2022/02/20 06:55:58;;;;;;;12.18;6.22;;;;;;;3.57;100.00;99077.36;1638240;86;21521;-68
2022/02/20 06:58:26;;;;;;;8.73;5.75;;;;;;;3.75;99.55;99076.06;1611391;87;21546;-69
2022/02/20 07:00:53;;;;;;;6.00;4.22;;;;;;;3.93;98.86;99079.22;1624220;87;20986;-68
2022/02/20 07:04:04;;;;;;;5.83;4.35;;;;;;;3.93;98.56;99077.09;1627755;86;21232;-69
2022/02/20 07:06:54;;;;;;;17.17;7.30;;;;;;;4.09;95.51;99069.83;1596786;87;21129;-68
2022/02/20 07:09:23;;;;;;;10.28;5.60;;;;;;;4.21;95.13;99080.00;1625555;86;21084;-68
2022/02/20 07:11:50;;;;;;;15.68;6.60;;;;;;;4.10;94.06;99075.45;1638090;86;21185;-68
2022/02/20 07:14:18;;;;;;;79.43;37.23;;;;;;;4.27;92.22;99079.64;1626197;87;21030;-67
2022/02/20 07:16:45;;;;;;;60.20;30.48;;;;;;;4.30;91.23;99073.87;1640731;85;21019;-69
2022/02/20 07:19:13;;;;;;;12.75;6.62;;;;;;;4.49;91.61;99075.98;1664129;85;21066;-68
2022/02/20 07:22:22;;;;;;;9.83;5.67;;;;;;;4.28;89.08;99076.73;1658487;85;21721;-67
2022/02/20 07:24:49;;;;;;;9.13;4.72;;;;;;;4.67;87.41;99081.75;1639783;86;21737;-68
2022/02/20 07:27:17;;;;;;;18.73;9.63;;;;;;;4.69;86.04;99090.31;1641806;85;21072;-68
2022/02/20 07:29:46;;;;;;;26.65;12.82;;;;;;;4.85;85.51;99098.98;1676275;84;21098;-69
2022/02/20 07:32:16;;;;;;;43.25;23.27;;;;;;;4.70;84.60;99095.41;1663341;84;21420;-69
2022/02/20 07:34:43;;;;;;;13.45;5.37;;;;;;;4.70;84.87;99095.91;1675463;84;21137;-67
2022/02/20 07:37:10;;;;;;;14.55;8.93;;;;;;;4.58;85.45;99099.88;1666684;83;21469;-67
2022/02/20 07:39:37;;;;;;;13.22;6.05;;;;;;;4.63;81.69;99087.21;1655898;83;21144;-68
2022/02/20 07:42:05;;;;;;;8.98;5.62;;;;;;;4.76;83.12;99100.34;1657565;83;21522;-68
2022/02/20 07:44:34;;;;;;;11.70;6.20;;;;;;;4.75;81.95;99100.02;1655048;84;21056;-69
2022/02/20 07:47:01;;;;;;;9.05;5.45;;;;;;;5.06;80.69;99110.92;1637863;84;22008;-69
2022/02/20 07:49:29;;;;;;;17.57;12.30;;;;;;;5.28;78.05;99113.05;1683742;84;21943;-67
2022/02/20 07:51:56;;;;;;;41.98;29.77;;;;;;;5.22;78.20;99102.81;1663430;83;21123;-68
2022/02/20 07:54:26;;;;;;;10.50;5.58;;;;;;;5.36;77.14;99102.88;1671605;83;21558;-68
2022/02/20 07:56:56;;;;;;;57.38;45.98;;;;;;;5.46;74.83;99105.47;1669979;84;20976;-69
2022/02/20 07:59:25;;;;;;;13.40;7.90;;;;;;;5.51;75.63;99100.26;1681316;84;20996;-69
2022/02/20 08:01:53;;;;;;;21.85;15.32;;;;;;;5.69;73.26;99092.16;1645414;84;21500;-68
2022/02/20 08:04:20;;;;;;;11.50;5.42;;;;;;;5.48;73.46;99098.88;1661395;84;21058;-68
2022/02/20 08:06:47;;;;;;;12.00;5.97;;;;;;;5.34;73.41;99099.64;1657131;85;20996;-67
2022/02/20 08:09:14;;;;;;;45.70;22.45;;;;;;;5.21;74.57;99103.03;1656433;84;20937;-68
2022/02/20 08:11:42;;;;;;;14.53;8.23;;;;;;;5.19;75.38;99095.27;1656327;84;21062;-65
2022/02/20 08:14:10;;;;;;;142.43;79.17;;;;;;;5.14;75.21;99096.47;1662644;84;22250;-69
2022/02/20 08:16:37;;;;;;;27.80;16.32;;;;;;;5.14;76.54;99097.80;1663933;85;20991;-68
2022/02/20 08:19:04;;;;;;;23.30;16.07;;;;;;;5.34;73.32;99094.31;1645762;84;21502;-68
2022/02/20 08:21:32;;;;;;;19.25;11.18;;;;;;;5.28;73.64;99110.38;1651686;84;21015;-70
2022/02/20 08:24:02;;;;;;;15.48;9.28;;;;;;;4.99;74.19;99102.23;1646600;85;21071;-68
2022/02/20 08:26:29;;;;;;;9.85;6.60;;;;;;;5.27;74.24;99112.23;1626981;87;21315;-68
2022/02/20 08:28:57;;;;;;;25.75;19.67;;;;;;;5.46;71.92;99107.61;1655209;86;20999;-68
2022/02/20 08:31:25;;;;;;;88.65;49.33;;;;;;;5.71;71.02;99097.27;1670411;84;20994;-68
2022/02/20 08:33:53;;;;;;;17.85;10.10;;;;;;;5.66;70.21;99083.81;1688798;84;20967;-68
2022/02/20 08:36:20;;;;;;;64.50;36.28;;;;;;;5.33;71.92;99099.33;1683768;84;26535;-68
2022/02/20 08:38:49;;;;;;;10.08;5.85;;;;;;;5.18;74.15;99094.98;1677030;84;21525;-69
2022/02/20 08:41:20;;;;;;;15.93;9.03;;;;;;;5.03;74.94;99087.97;1678172;84;21136;-68
2022/02/20 08:43:47;;;;;;;191.43;103.32;;;;;;;5.62;71.88;99081.35;1658309;84;21044;-69
2022/02/20 08:46:14;;;;;;;25.97;12.80;;;;;;;5.66;69.44;99096.63;1650860;84;21087;-69
2022/02/20 08:48:43;;;;;;;25.82;15.72;;;;;;;5.76;70.12;99100.04;1660019;83;21085;-67
2022/02/20 08:51:13;;;;;;;22.42;10.38;;;;;;;5.74;68.87;99095.47;1663013;83;21619;-68
2022/02/20 08:53:41;;;;;;;10.58;6.67;;;;;;;5.89;67.97;99093.64;1661859;84;21046;-69
2022/02/20 08:56:08;;;;;;;16.87;10.28;;;;;;;5.83;67.44;99084.75;1667232;83;20861;-68
2022/02/20 08:58:36;;;;;;;16.17;8.95;;;;;;;6.16;67.44;99093.97;1670544;84;21012;-67
2022/02/20 09:01:03;;;;;;;13.65;7.20;;;;;;;6.44;64.07;99090.00;1669434;83;21024;-66
2022/02/20 09:03:31;;;;;;;11.50;6.97;;;;;;;6.72;63.20;99080.89;1654330;84;20992;-67
2022/02/20 09:05:59;;;;;;;51.68;28.23;;;;;;;7.09;62.83;99086.58;1659628;84;20988;-67
2022/02/20 09:08:27;;;;;;;53.17;29.45;;;;;;;7.39;61.51;99096.92;1678593;85;20996;-67
2022/02/20 09:10:54;;;;;;;24.07;11.23;;;;;;;7.56;57.87;99096.11;1658847;84;21643;-69
2022/02/20 09:13:22;;;;;;;15.43;6.25;;;;;;;7.17;58.71;99085.38;1663048;84;21077;-67
2022/02/20 09:15:49;;;;;;;26.48;15.05;;;;;;;7.32;59.49;99098.14;1660843;84;21656;-67
2022/02/20 09:18:24;;;;;;;65.42;36.73;;;;;;;7.71;57.27;99089.11;1670370;84;21067;-68
2022/02/20 09:20:54;;;;;;;20.12;10.98;;;;;;;7.36;57.54;99093.41;1663466;84;21088;-67
2022/02/20 09:23:34;;;;;;;9.93;5.12;;;;;;;7.20;58.25;99087.55;1680124;84;20994;-70
2022/02/20 09:26:08;;;;;;;13.20;5.33;;;;;;;7.21;59.11;99099.86;1657167;84;21055;-67
2022/02/20 09:28:47;;;;;;;7.92;5.58;;;;;;;7.18;58.17;99098.98;1665952;84;21570;-68
2022/02/20 09:31:29;;;;;;;;;;;;;;;;;;;;;
2022/02/20 09:34:22;;;;;;;;;;;;;;;;;;;;;
2022/02/20 09:36:53;;;;;;;11.78;5.45;;;;;;;7.46;57.10;99106.91;1577462;88;21326;-68
2022/02/20 09:39:18;;;;;;;30.97;18.12;;;;;;;7.61;57.20;99106.86;1583054;88;20989;-69
2022/02/20 09:41:45;;;;;;;21.33;9.25;;;;;;;7.53;55.65;99099.27;1585573;87;21142;-67
2022/02/20 09:44:15;;;;;;;31.90;16.07;;;;;;;7.48;56.44;99105.34;1566011;88;21102;-64
2022/02/20 09:46:45;;;;;;;8.85;5.55;;;;;;;7.58;56.35;99104.69;1602084;88;21473;-66
2022/02/20 09:49:14;;;;;;;10.75;5.25;;;;;;;7.51;56.79;99106.98;1581386;89;21169;-66
2022/02/20 09:51:44;;;;;;;10.25;4.42;;;;;;;7.48;57.49;99110.16;1571704;87;21138;-66
2022/02/20 09:57:34;;;;;;;11.78;6.80;;;;;;;7.17;57.23;99104.05;1531578;89;21092;-69
2022/02/20 10:00:02;;;;;;;7.53;4.00;;;;;;;7.49;57.29;99097.61;1545274;90;21064;-69
2022/02/20 10:02:40;;;;;;;92.57;44.75;;;;;;;7.49;55.05;99062.36;1550253;90;21316;-68
2022/02/20 10:05:21;;;;;;;9.28;5.12;;;;;;;7.44;55.53;99090.33;1555148;90;21063;-68
2022/02/20 10:07:55;;;;;;;57.08;31.42;;;;;;;7.72;55.03;99080.59;1557835;89;21016;-69
2022/02/20 10:10:27;;;;;;;52.05;23.98;;;;;;;8.05;54.42;99074.32;1529497;91;21150;-68
2022/02/20 10:13:05;;;;;;;11.70;5.50;;;;;;;7.78;53.33;99070.23;1558884;90;21038;-69
2022/02/20 10:15:36;;;;;;;15.43;7.37;;;;;;;7.69;53.70;99063.70;1577811;89;21018;-68
2022/02/20 10:18:22;;;;;;;8.55;5.60;;;;;;;7.87;53.54;99070.09;1585590;89;21125;-68
2022/02/20 10:21:10;;;;;;;5.45;3.02;;;;;;;8.07;52.37;99064.19;1570109;89;21767;-67
2022/02/20 10:24:05;;;;;;;27.32;12.80;;;;;;;7.44;53.15;99035.58;1561897;89;21038;-68
2022/02/20 10:26:49;;;;;;;25.68;12.00;;;;;;;7.35;53.89;99044.25;1572451;89;21252;-67
2022/02/20 10:29:36;;;;;;;12.23;6.30;;;;;;;7.91;53.90;99050.35;1589100;89;21478;-66
2022/02/20 10:32:04;;;;;;;19.55;9.88;;;;;;;7.50;54.02;99039.16;1568588;90;20994;-69
2022/02/20 10:34:32;;;;;;;10.18;5.60;;;;;;;8.16;52.89;99037.84;1608087;88;21156;-67
2022/02/20 10:37:03;;;;;;;7.50;5.17;;;;;;;8.10;52.61;99024.13;1628212;87;21099;-69
2022/02/20 10:39:42;;;;;;;11.35;7.20;;;;;;;7.99;52.57;99031.77;1613010;87;21088;-67
2022/02/20 10:42:19;;;;;;;16.05;7.12;;;;;;;7.75;52.39;99026.66;1614517;87;21516;-68
2022/02/20 10:44:59;;;;;;;;;;;;;;;7.59;53.50;99023.50;1607415;86;21092;-67
2022/02/20 10:47:26;;;;;;;10.88;6.17;;;;;;;7.08;53.23;99015.59;1602453;87;21096;-68
2022/02/20 10:50:32;;;;;;;9.37;5.83;;;;;;;7.28;54.39;99015.88;1605501;86;21227;-68
2022/02/20 10:53:19;;;;;;;19.07;10.00;;;;;;;7.16;54.82;99006.36;1586439;88;21338;-68
2022/02/20 10:55:50;;;;;;;8.28;5.60;;;;;;;7.01;53.52;98993.60;1561282;89;20996;-68
2022/02/20 10:58:35;;;;;;;17.75;5.72;;;;;;;7.06;54.09;99001.68;1604501;87;20957;-67
2022/02/20 11:01:03;;;;;;;5.60;4.15;;;;;;;6.81;54.51;98993.56;1593007;86;21658;-69
2022/02/20 11:03:41;;;;;;;6.35;4.25;;;;;;;6.46;54.90;98975.63;1617049;87;20925;-67
2022/02/20 11:06:08;;;;;;;8.95;4.42;;;;;;;6.30;55.05;98966.58;1609819;87;20994;-67
2022/02/20 11:08:51;;;;;;;6.73;4.50;;;;;;;6.05;55.21;98972.23;1610260;87;21088;-67
2022/02/20 11:11:40;;;;;;;8.70;4.95;;;;;;;5.99;56.05;98974.81;1612891;87;21116;-66
2022/02/20 11:14:14;;;;;;;9.33;4.87;;;;;;;5.94;56.95;98957.92;1602323;87;21119;-66
2022/02/20 11:16:51;;;;;;;8.73;4.47;;;;;;;5.96;57.50;98968.63;1612180;86;20965;-68
2022/02/20 11:19:25;;;;;;;9.33;5.50;;;;;;;5.95;57.16;98977.69;1618321;87;21491;-68
2022/02/20 11:21:55;;;;;;;7.10;4.37;;;;;;;5.85;56.79;98965.97;1616441;87;21034;-67
2022/02/20 11:24:22;;;;;;;8.35;4.60;;;;;;;5.95;55.93;98948.87;1621111;86;20906;-67
2022/02/20 11:26:50;;;;;;;11.12;5.95;;;;;;;5.91;55.61;98958.38;1577408;87;21259;-67
2022/02/20 11:29:19;;;;;;;8.70;5.17;;;;;;;5.95;56.16;98963.53;1614805;88;20903;-67
2022/02/20 11:31:50;;;;;;;8.20;5.10;;;;;;;5.99;56.16;98964.16;1604882;87;21126;-68
2022/02/20 11:34:21;;;;;;;13.10;5.17;;;;;;;6.02;55.20;98958.88;1601911;88;21461;-68
2022/02/20 11:36:56;;;;;;;9.15;5.83;;;;;;;6.00;56.75;98958.30;1597901;88;20925;-68
2022/02/20 11:40:50;;;;;;;;;;;;;;;;;;;;;
2022/02/20 11:43:12;;;;;;;;;;;;;;;;;;;;;
2022/02/20 11:46:14;;;;;;;11.25;4.97;;;;;;;5.76;54.65;98938.39;1598193;89;21114;-68
2022/02/20 11:52:25;;;;;;;6.87;4.62;;;;;;;5.78;57.32;98956.28;1589936;89;21537;-67
2022/02/20 11:54:58;;;;;;;9.98;4.67;;;;;;;5.95;55.76;98948.38;1588144;89;21144;-66
2022/02/20 11:57:45;;;;;;;;;;;;;;;;;;;;;
2022/02/20 12:00:18;;;;;;;5.95;5.10;;;;;;;6.06;55.49;98949.89;1579648;88;21532;-66
2022/02/20 12:03:08;;;;;;;7.03;4.72;;;;;;;5.94;55.25;98944.61;1578844;89;21047;-67
2022/02/20 12:05:42;;;;;;;9.23;4.78;;;;;;;5.91;54.66;98946.39;1573626;89;21007;-67
2022/02/20 12:08:17;;;;;;;10.90;4.60;;;;;;;5.81;53.04;98927.03;1615645;88;21075;-65
2022/02/20 12:10:58;;;;;;;;;;;;;;;;;;;;;
2022/02/20 12:13:36;;;;;;;8.68;4.45;;;;;;;5.87;52.68;98942.58;1582245;88;21122;-67
2022/02/20 12:16:38;;;;;;;8.50;4.37;;;;;;;5.70;51.30;98928.68;1616492;86;22630;-67
2022/02/20 12:19:37;;;;;;;3.52;3.22;;;;;;;5.75;50.11;98927.44;1603388;89;20987;-63
2022/02/20 12:39:18;;;;;;;9.98;5.17;;;;;;;5.75;50.58;98902.67;1630738;86;21060;-69
2022/02/20 12:41:59;;;;;;;6.55;4.92;;;;;;;5.67;50.72;98898.54;1666884;84;21143;-71
2022/02/20 12:44:29;;;;;;;15.68;7.12;;;;;;;5.77;51.70;98898.72;1675005;83;21049;-69
2022/02/20 12:47:05;;;;;;;6.60;4.62;;;;;;;5.84;52.30;98898.59;1680038;84;21129;-68
2022/02/20 12:49:42;;;;;;;7.28;4.90;;;;;;;5.84;52.42;98899.92;1684129;83;21038;-68
2022/02/20 12:52:09;;;;;;;11.50;4.05;;;;;;;5.88;52.22;98897.08;1692763;81;21081;-68
2022/02/20 12:54:37;;;;;;;5.15;4.40;;;;;;;5.80;52.77;98892.91;1678637;84;21118;-70
2022/02/20 12:57:08;;;;;;;7.72;4.83;;;;;;;5.61;50.93;98883.53;1630068;87;21099;-67
2022/02/20 12:59:59;;;;;;;11.45;4.70;;;;;;;5.58;51.13;98881.32;1627966;86;21214;-70
2022/02/20 13:02:44;;;;;;;12.43;3.90;;;;;;;5.50;51.07;98891.02;1690677;83;21054;-68
2022/02/20 13:05:32;;;;;;;9.43;4.67;;;;;;;5.38;50.37;98890.52;1684416;83;22016;-68
2022/02/20 13:08:03;;;;;;;7.62;4.58;;;;;;;5.30;50.89;98894.89;1649071;84;20972;-67
2022/02/20 13:10:42;;;;;;;6.37;4.03;;;;;;;5.23;51.01;98894.22;1664461;84;21036;-69
2022/02/20 13:13:13;;;;;;;7.62;4.17;;;;;;;5.22;51.02;98892.61;1683302;83;21164;-69
2022/02/20 13:15:59;;;;;;;5.42;4.05;;;;;;;5.16;52.01;98882.36;1668584;84;21134;-71
2022/02/20 13:18:30;;;;;;;7.45;4.72;;;;;;;5.20;52.57;98896.02;1672331;84;21887;-70
2022/02/20 13:21:15;;;;;;;11.95;5.25;;;;;;;5.13;52.95;98888.69;1673041;84;20984;-69
2022/02/20 13:23:45;;;;;;;5.05;4.00;;;;;;;5.08;52.29;98892.05;1671738;83;21011;-68
2022/02/20 13:26:20;;;;;;;11.83;6.92;;;;;;;5.00;51.94;98887.59;1680544;82;21567;-68
2022/02/20 13:28:54;;;;;;;9.00;5.90;;;;;;;5.00;53.35;98885.77;1681861;82;21008;-69
2022/02/20 13:31:26;;;;;;;7.58;4.78;;;;;;;4.96;53.47;98883.80;1680116;84;21795;-70
2022/02/20 13:33:58;;;;;;;4.78;4.03;;;;;;;4.90;53.92;98868.23;1633851;85;21024;-68
2022/02/20 13:36:31;;;;;;;7.12;5.30;;;;;;;4.87;53.73;98880.15;1615047;85;20973;-70
2022/02/20 13:39:11;;;;;;;12.25;6.53;;;;;;;4.86;54.17;98886.52;1620457;85;21165;-70
2022/02/20 13:41:39;;;;;;;11.00;7.33;;;;;;;4.82;53.96;98877.91;1676472;82;21079;-69
2022/02/20 13:44:06;;;;;;;;;;;;;;;4.79;54.32;98877.86;1683653;82;21137;-70
2022/02/20 13:46:43;;;;;;;9.28;6.45;;;;;;;4.75;53.94;98867.39;1676852;84;20757;-68
2022/02/20 13:49:12;;;;;;;9.90;6.35;;;;;;;4.72;54.32;98867.86;1666928;84;20960;-69
2022/02/20 13:51:44;;;;;;;9.28;5.55;;;;;;;4.70;54.70;98864.62;1668428;83;21033;-69
2022/02/20 13:54:17;;;;;;;9.30;5.12;;;;;;;4.67;54.51;98863.77;1688682;82;20998;-68
2022/02/20 13:56:58;;;;;;;8.03;5.20;;;;;;;4.68;54.60;98859.55;1683259;83;21896;-68
2022/02/20 13:59:39;;;;;;;10.25;5.37;;;;;;;4.66;55.10;98857.64;1684575;83;20997;-69
2022/02/20 14:02:09;;;;;;;6.72;5.35;;;;;;;4.66;55.74;98844.88;1672753;82;21048;-71
2022/02/20 14:04:54;;;;;;;7.55;5.97;;;;;;;4.63;55.52;98838.67;1661255;83;21034;-68
2022/02/20 14:07:27;;;;;;;11.18;6.85;;;;;;;4.65;55.22;98846.70;1665962;82;21210;-70
2022/02/20 14:09:56;;;;;;;;;;;;;;;4.67;55.58;98845.95;1672212;83;21791;-70
2022/02/20 14:12:33;;;;;;;12.70;7.10;;;;;;;4.65;54.95;98840.58;1650195;84;20193;-68
2022/02/20 14:15:14;;;;;;;9.05;5.35;;;;;;;4.70;55.67;98846.01;1674717;82;21009;-69
2022/02/20 14:17:56;;;;;;;7.67;5.92;;;;;;;4.65;55.24;98836.59;1673521;83;21064;-68
2022/02/20 14:20:38;;;;;;;10.93;6.08;;;;;;;4.67;55.55;98842.50;1662588;84;21159;-69
2022/02/20 14:23:14;;;;;;;5.53;4.47;;;;;;;4.70;56.25;98837.53;1648687;84;21104;-68
2022/02/20 14:25:50;;;;;;;12.10;7.22;;;;;;;4.63;55.95;98833.36;1672766;82;21043;-67
2022/02/20 14:28:27;;;;;;;9.05;5.67;;;;;;;4.59;56.71;98836.21;1669268;84;21047;-69
2022/02/20 14:31:12;;;;;;;11.97;7.55;;;;;;;4.57;57.49;98832.45;1665091;84;21066;-68
2022/02/20 14:33:43;;;;;;;8.30;5.33;;;;;;;4.54;56.85;98820.16;1674062;83;21087;-68
2022/02/20 14:36:10;;;;;;;5.17;4.37;;;;;;;4.47;57.77;98825.58;1675839;82;21787;-69
2022/02/20 14:38:40;;;;;;;10.45;5.08;;;;;;;4.46;57.44;98824.78;1667064;84;21616;-70
2022/02/20 14:41:10;;;;;;;11.90;7.15;;;;;;;4.43;57.34;98827.07;1666406;83;20942;-68
2022/02/20 14:43:40;;;;;;;6.60;5.12;;;;;;;4.44;58.23;98828.70;1678128;82;21054;-70
2022/02/20 14:46:07;;;;;;;10.58;6.53;;;;;;;4.45;57.96;98823.67;1683406;82;21054;-74
2022/02/20 14:48:35;;;;;;;20.40;13.13;;;;;;;4.44;58.11;98822.06;1680113;82;21816;-70
2022/02/20 14:51:07;;;;;;;8.85;5.72;;;;;;;4.44;58.58;98809.58;1669218;83;21675;-69
2022/02/20 14:53:35;;;;;;;9.03;5.72;;;;;;;4.38;58.51;98805.70;1669432;84;21462;-70
2022/02/20 14:56:03;;;;;;;21.80;12.18;;;;;;;4.30;59.29;98810.84;1676371;84;21162;-69
2022/02/20 14:58:30;;;;;;;12.75;7.30;;;;;;;4.19;60.69;98812.47;1668247;84;21077;-70
2022/02/20 15:00:58;;;;;;;15.98;8.20;;;;;;;4.10;60.93;98809.86;1668037;83;22159;-68
2022/02/20 15:03:25;;;;;;;22.37;10.65;;;;;;;4.00;61.56;98816.26;1669463;84;21062;-68
2022/02/20 15:05:52;;;;;;;9.90;6.53;;;;;;;3.89;62.70;98807.22;1674926;84;21518;-71
2022/02/20 15:08:19;;;;;;;16.75;8.63;;;;;;;3.79;63.54;98793.70;1669912;83;21004;-69
2022/02/20 15:10:46;;;;;;;11.60;6.50;;;;;;;3.71;63.93;98796.70;1690297;83;21083;-70
2022/02/20 15:13:12;;;;;;;7.78;6.42;;;;;;;3.65;64.61;98795.77;1700149;83;21119;-71
2022/02/20 15:15:39;;;;;;;14.33;8.55;;;;;;;3.62;65.10;98789.56;1693638;83;21063;-69
2022/02/20 15:18:06;;;;;;;16.23;9.40;;;;;;;3.52;66.67;98787.46;1679276;84;20957;-70
2022/02/20 15:20:34;;;;;;;16.60;9.95;;;;;;;3.40;67.61;98794.05;1663550;83;27978;-70
2022/02/20 15:23:01;;;;;;;17.32;10.13;;;;;;;3.29;69.26;98779.44;1652353;85;21105;-69
2022/02/20 15:25:28;;;;;;;27.32;12.20;;;;;;;3.17;70.55;98776.73;1655390;85;21179;-70
2022/02/20 15:27:55;;;;;;;23.92;13.40;;;;;;;3.10;71.43;98781.31;1659826;85;21017;-71
2022/02/20 15:30:21;;;;;;;44.27;21.42;;;;;;;3.03;72.55;98770.78;1663560;84;21056;-71
2022/02/20 15:32:49;;;;;;;53.75;28.40;;;;;;;3.02;73.06;98771.03;1668994;83;21036;-70
2022/02/20 15:35:16;;;;;;;19.55;10.55;;;;;;;2.95;74.11;98765.80;1673796;82;26643;-70
2022/02/20 15:37:43;;;;;;;68.33;29.57;;;;;;;2.86;74.74;98747.25;1686886;83;21583;-70
2022/02/20 15:40:10;;;;;;;58.65;26.57;;;;;;;2.79;75.91;98765.87;1669282;84;21079;-70
2022/02/20 15:42:39;;;;;;;59.65;28.52;;;;;;;2.73;76.78;98758.31;1671663;84;21062;-70
2022/02/20 15:45:07;;;;;;;77.15;43.23;;;;;;;2.74;76.71;98757.78;1665394;84;21090;-69
2022/02/20 15:47:35;;;;;;;56.35;30.97;;;;;;;2.68;77.18;98750.73;1692279;82;21003;-69
2022/02/20 15:50:02;;;;;;;74.97;42.98;;;;;;;2.58;78.02;98744.12;1664251;84;21248;-68
2022/02/20 15:52:29;;;;;;;28.02;16.55;;;;;;;2.49;78.68;98742.78;1672431;83;21684;-74
2022/02/20 15:54:56;;;;;;;21.77;12.43;;;;;;;2.43;79.42;98738.39;1682013;84;21103;-71
2022/02/20 15:57:23;;;;;;;23.35;11.48;;;;;;;2.42;79.11;98742.56;1671381;84;21027;-69
2022/02/20 15:59:52;;;;;;;32.00;16.20;;;;;;;2.38;78.74;98736.08;1689345;84;21099;-69
2022/02/20 16:02:18;;;;;;;31.90;16.73;;;;;;;2.33;79.11;98738.89;1692171;84;21220;-69
2022/02/20 16:04:45;;;;;;;27.90;18.37;;;;;;;2.28;80.31;98740.56;1690118;84;21024;-69
2022/02/20 16:07:12;;;;;;;36.88;18.32;;;;;;;2.17;80.55;98739.98;1680539;84;21072;-69
2022/02/20 16:09:40;;;;;;;30.55;20.27;;;;;;;2.01;81.44;98736.88;1688996;84;22341;-71
2022/02/20 16:12:09;;;;;;;30.75;18.87;;;;;;;1.90;81.76;98740.23;1691423;83;20952;-72
2022/02/20 16:14:39;;;;;;;38.90;19.95;;;;;;;1.79;83.01;98727.69;1691031;83;21498;-71
2022/02/20 16:17:04;;;;;;;37.98;21.23;;;;;;;1.76;83.48;98729.45;1686791;83;21513;-70
2022/02/20 16:19:31;;;;;;;41.20;24.05;;;;;;;1.75;83.63;98726.52;1662830;83;21651;-69
2022/02/20 16:22:02;;;;;;;59.20;31.52;;;;;;;1.73;83.87;98726.73;1683324;83;21023;-71
2022/02/20 16:24:30;;;;;;;62.75;32.15;;;;;;;1.66;84.36;98722.00;1666318;83;21126;-72
2022/02/20 16:29:32;;;;;;;82.35;37.48;;;;;;;1.64;85.37;98725.38;1672163;82;20990;-70
2022/02/20 16:31:58;;;;;;;71.55;33.28;;;;;;;1.63;85.42;98717.95;1676166;83;21570;-74
2022/02/20 16:34:25;;;;;;;62.40;31.15;;;;;;;1.70;84.73;98720.55;1668825;84;21564;-70
2022/02/20 16:36:56;;;;;;;58.70;30.55;;;;;;;1.69;85.64;98720.24;1681504;82;21084;-70
2022/02/20 16:39:24;;;;;;;44.03;23.65;;;;;;;1.69;85.92;98713.14;1715221;83;22197;-70
2022/02/20 16:41:51;;;;;;;;;;;;;;;1.71;86.75;98715.06;1705469;83;20935;-69
2022/02/20 16:44:17;;;;;;;39.70;19.77;;;;;;;1.82;86.68;98708.75;1685184;83;20141;-70
2022/02/20 16:46:45;;;;;;;34.80;17.52;;;;;;;1.94;85.22;98708.34;1680194;83;21016;-67
2022/02/20 16:49:12;;;;;;;26.97;14.98;;;;;;;2.07;84.76;98713.48;1662430;84;21179;-69
2022/02/20 16:51:38;;;;;;;23.10;14.35;;;;;;;2.14;83.78;98706.81;1685204;84;21151;-69
2022/02/20 16:54:06;;;;;;;26.95;13.48;;;;;;;2.20;84.07;98712.53;1646774;84;39282;-71
2022/02/20 16:56:33;;;;;;;21.82;12.73;;;;;;;2.18;83.84;98708.00;1677599;84;21087;-70
2022/02/20 16:59:00;;;;;;;27.05;13.45;;;;;;;2.18;84.16;98700.55;1672637;84;21083;-70
2022/02/20 17:01:26;;;;;;;18.60;10.50;;;;;;;2.19;83.67;98702.98;1677326;83;21039;-71
2022/02/20 17:03:54;;;;;;;30.12;15.08;;;;;;;2.18;83.74;98704.52;1684412;83;21155;-68
2022/02/20 17:06:29;;;;;;;21.02;11.22;;;;;;;2.20;85.06;98707.24;1687264;83;21554;-71
2022/02/20 17:08:56;;;;;;;43.02;18.67;;;;;;;2.18;85.07;98700.06;1685544;83;21028;-70
2022/02/20 17:11:25;;;;;;;54.88;23.95;;;;;;;2.15;85.93;98701.80;1675607;83;21191;-70
2022/02/20 17:13:51;;;;;;;44.23;19.20;;;;;;;2.17;85.99;98701.59;1654561;83;21067;-69
2022/02/20 17:16:18;;;;;;;39.35;17.07;;;;;;;2.18;85.68;98698.73;1673701;83;21157;-68
2022/02/20 17:18:44;;;;;;;50.05;26.73;;;;;;;2.19;86.41;98695.05;1673080;83;21160;-67
2022/02/20 17:21:11;;;;;;;76.82;40.55;;;;;;;2.16;86.95;98690.20;1681050;84;21062;-68
2022/02/20 17:23:38;;;;;;;46.37;22.42;;;;;;;2.17;87.00;98694.45;1683576;83;21507;-68
2022/02/20 17:26:04;;;;;;;29.00;15.03;;;;;;;2.19;86.76;98688.42;1686044;83;21054;-68
2022/02/20 17:28:31;;;;;;;41.90;16.70;;;;;;;2.22;86.20;98685.85;1656444;85;21893;-71
2022/02/20 17:30:59;;;;;;;47.88;21.70;;;;;;;2.25;85.91;98678.27;1671541;84;20971;-68
2022/02/20 17:33:29;;;;;;;33.18;12.68;;;;;;;2.27;86.38;98678.86;1668334;84;21015;-71
2022/02/20 17:35:54;;;;;;;33.95;18.25;;;;;;;2.27;86.75;98666.14;1683355;83;21010;-70
2022/02/20 17:38:22;;;;;;;30.52;16.48;;;;;;;2.27;87.14;98662.97;1656609;83;21126;-71
2022/02/20 17:40:48;;;;;;;35.40;11.78;;;;;;;2.29;86.41;98665.41;1676332;83;21615;-70
2022/02/20 17:43:17;;;;;;;26.02;12.98;;;;;;;2.31;86.23;98669.97;1673153;84;21082;-73
2022/02/20 17:45:44;;;;;;;17.60;10.72;;;;;;;2.32;86.75;98667.08;1681847;84;29084;-71
2022/02/20 17:48:11;;;;;;;38.67;17.92;;;;;;;2.35;86.58;98660.53;1671704;84;21135;-70
2022/02/20 17:50:37;;;;;;;19.62;12.33;;;;;;;2.38;86.29;98655.30;1672928;84;21127;-72
2022/02/20 17:53:05;;;;;;;;;;;;;;;2.41;86.27;98666.28;1677878;83;21034;-71
2022/02/20 17:55:37;;;;;;;26.25;14.90;;;;;;;2.43;86.84;98654.15;1674444;84;20943;-72
2022/02/20 17:58:01;;;;;;;;;;;;;;;2.41;86.84;98652.23;1670675;84;21108;-71
2022/02/20 18:00:30;;;;;;;19.50;10.75;;;;;;;2.42;86.12;98645.89;1673720;83;20232;-71
2022/02/20 18:02:57;;;;;;;17.30;9.75;;;;;;;2.44;86.06;98646.48;1680089;83;21112;-70
2022/02/20 18:05:23;;;;;;;15.95;10.25;;;;;;;2.50;85.68;98641.60;1672418;84;21069;-69
2022/02/20 18:07:50;;;;;;;12.85;8.35;;;;;;;2.49;86.32;98646.63;1683077;83;21031;-69
2022/02/20 18:10:18;;;;;;;21.20;12.07;;;;;;;2.50;85.97;98640.28;1676368;82;21121;-70
2022/02/20 18:12:50;;;;;;;16.17;7.97;;;;;;;2.53;86.57;98642.50;1632069;85;21523;-70